Atkinson, Maine
Current Conditions -  °F | °C
As of 6:53 AM on Thursday 29 Jan 2015 (Local Time) from KBGR Reporting Station
Clear Clear  
Wind Chill: -6°   Ceiling: Unl
Heat Index: -6°   Visibility: 10mi
Dew Point: -9°   Wind: 3mph
Humidity: 87%   Direction: 160°SSE
Pressure: 30.28"   Gusts: NA
Location:  45.2129°N, 69.1615°W
Report Text: KBGR 291153Z 16003KT 10SM CLR M21/M23 A3028 RMK AO2 SLP260 4/021 I1000 I6000 T12111228 11172 21233 53013
Loading
Personal Weather Stations






























Interactive Weather Map New forecast layout! Learn more

10-Day Weather Forecast

Advertisements
Track Severe Weather on mobile